sensor_id;sensor_type;location;lat;lon;timestamp;P1;durP1;ratioP1;P2;durP2;ratioP2
61477;SDS011;47345;52.334;10.392;2023-03-31T00:00:01;3.10;;;2.00;;
61477;SDS011;47345;52.334;10.392;2023-03-31T00:02:38;2.20;;;1.80;;
61477;SDS011;47345;52.334;10.392;2023-03-31T00:05:09;4.20;;;1.70;;
61477;SDS011;47345;52.334;10.392;2023-03-31T00:07:45;3.20;;;1.90;;
61477;SDS011;47345;52.334;10.392;2023-03-31T00:10:16;4.60;;;2.10;;
61477;SDS011;47345;52.334;10.392;2023-03-31T00:12:47;1.70;;;1.60;;
61477;SDS011;47345;52.334;10.392;2023-03-31T00:15:17;4.00;;;1.80;;
61477;SDS011;47345;52.334;10.392;2023-03-31T00:17:48;2.80;;;1.70;;
61477;SDS011;47345;52.334;10.392;2023-03-31T00:20:19;6.80;;;1.90;;
61477;SDS011;47345;52.334;10.392;2023-03-31T00:22:49;2.00;;;1.50;;
61477;SDS011;47345;52.334;10.392;2023-03-31T00:25:21;2.50;;;1.40;;
61477;SDS011;47345;52.334;10.392;2023-03-31T00:27:52;2.80;;;1.60;;
61477;SDS011;47345;52.334;10.392;2023-03-31T00:30:23;5.00;;;1.60;;
61477;SDS011;47345;52.334;10.392;2023-03-31T00:32:54;1.60;;;1.50;;
61477;SDS011;47345;52.334;10.392;2023-03-31T00:35:24;3.00;;;1.80;;
61477;SDS011;47345;52.334;10.392;2023-03-31T00:37:55;2.00;;;1.60;;
61477;SDS011;47345;52.334;10.392;2023-03-31T00:40:27;2.00;;;1.80;;
61477;SDS011;47345;52.334;10.392;2023-03-31T00:42:57;3.60;;;1.70;;
61477;SDS011;47345;52.334;10.392;2023-03-31T00:45:28;2.70;;;1.70;;
61477;SDS011;47345;52.334;10.392;2023-03-31T00:48:01;3.50;;;1.90;;
61477;SDS011;47345;52.334;10.392;2023-03-31T00:50:43;1.40;;;1.30;;
61477;SDS011;47345;52.334;10.392;2023-03-31T00:53:18;3.50;;;1.70;;
61477;SDS011;47345;52.334;10.392;2023-03-31T00:55:53;2.10;;;1.80;;
61477;SDS011;47345;52.334;10.392;2023-03-31T00:58:26;2.20;;;1.60;;
61477;SDS011;47345;52.334;10.392;2023-03-31T01:01:00;2.60;;;1.70;;
61477;SDS011;47345;52.334;10.392;2023-03-31T01:03:32;2.20;;;1.80;;
61477;SDS011;47345;52.334;10.392;2023-03-31T01:06:05;5.50;;;1.60;;
61477;SDS011;47345;52.334;10.392;2023-03-31T01:08:38;2.10;;;1.50;;
61477;SDS011;47345;52.334;10.392;2023-03-31T01:11:10;2.10;;;1.70;;
61477;SDS011;47345;52.334;10.392;2023-03-31T01:13:43;2.20;;;1.60;;
61477;SDS011;47345;52.334;10.392;2023-03-31T01:16:17;1.60;;;1.50;;
61477;SDS011;47345;52.334;10.392;2023-03-31T01:18:48;4.30;;;1.60;;
61477;SDS011;47345;52.334;10.392;2023-03-31T01:21:32;2.30;;;1.70;;
61477;SDS011;47345;52.334;10.392;2023-03-31T01:24:35;1.60;;;1.30;;
61477;SDS011;47345;52.334;10.392;2023-03-31T01:27:38;2.40;;;1.20;;
61477;SDS011;47345;52.334;10.392;2023-03-31T01:36:49;2.70;;;1.70;;
61477;SDS011;47345;52.334;10.392;2023-03-31T01:42:36;1.50;;;1.40;;
61477;SDS011;47345;52.334;10.392;2023-03-31T01:45:15;2.60;;;1.30;;
61477;SDS011;47345;52.334;10.392;2023-03-31T01:47:54;1.20;;;1.10;;
61477;SDS011;47345;52.334;10.392;2023-03-31T01:50:30;1.40;;;1.30;;
61477;SDS011;47345;52.334;10.392;2023-03-31T01:53:07;2.50;;;1.30;;
61477;SDS011;47345;52.334;10.392;2023-03-31T01:55:47;1.30;;;1.30;;
61477;SDS011;47345;52.334;10.392;2023-03-31T01:58:23;5.00;;;1.40;;
61477;SDS011;47345;52.334;10.392;2023-03-31T02:01:01;1.20;;;1.20;;
61477;SDS011;47345;52.334;10.392;2023-03-31T02:06:09;4.00;;;1.60;;
61477;SDS011;47345;52.334;10.392;2023-03-31T02:08:44;1.80;;;1.20;;
61477;SDS011;47345;52.334;10.392;2023-03-31T02:11:17;1.60;;;1.40;;
61477;SDS011;47345;52.334;10.392;2023-03-31T02:13:49;3.80;;;1.40;;
61477;SDS011;47345;52.334;10.392;2023-03-31T02:16:23;2.00;;;1.50;;
61477;SDS011;47345;52.334;10.392;2023-03-31T02:19:00;1.70;;;1.40;;
61477;SDS011;47345;52.334;10.392;2023-03-31T02:21:35;1.50;;;1.30;;
61477;SDS011;47345;52.334;10.392;2023-03-31T02:24:08;3.50;;;1.30;;
61477;SDS011;47345;52.334;10.392;2023-03-31T02:26:41;1.80;;;1.20;;
61477;SDS011;47345;52.334;10.392;2023-03-31T02:29:17;2.60;;;1.30;;
61477;SDS011;47345;52.334;10.392;2023-03-31T02:31:51;2.80;;;1.40;;
61477;SDS011;47345;52.334;10.392;2023-03-31T02:34:26;5.50;;;1.60;;
61477;SDS011;47345;52.334;10.392;2023-03-31T02:36:56;3.10;;;1.50;;
61477;SDS011;47345;52.334;10.392;2023-03-31T02:39:28;2.30;;;1.40;;
61477;SDS011;47345;52.334;10.392;2023-03-31T02:42:02;1.90;;;1.30;;
61477;SDS011;47345;52.334;10.392;2023-03-31T02:44:34;2.20;;;1.40;;
61477;SDS011;47345;52.334;10.392;2023-03-31T02:47:07;4.20;;;1.50;;
61477;SDS011;47345;52.334;10.392;2023-03-31T02:49:40;5.10;;;1.40;;
61477;SDS011;47345;52.334;10.392;2023-03-31T02:52:24;1.30;;;1.30;;
61477;SDS011;47345;52.334;10.392;2023-03-31T02:55:05;1.30;;;1.20;;
61477;SDS011;47345;52.334;10.392;2023-03-31T02:58:11;2.60;;;1.30;;
61477;SDS011;47345;52.334;10.392;2023-03-31T03:00:59;1.40;;;1.30;;
61477;SDS011;47345;52.334;10.392;2023-03-31T03:03:41;1.30;;;1.20;;
61477;SDS011;47345;52.334;10.392;2023-03-31T03:06:21;2.50;;;1.40;;
61477;SDS011;47345;52.334;10.392;2023-03-31T03:09:07;1.20;;;1.20;;
61477;SDS011;47345;52.334;10.392;2023-03-31T03:11:52;2.30;;;1.50;;
61477;SDS011;47345;52.334;10.392;2023-03-31T03:14:33;3.10;;;1.40;;
61477;SDS011;47345;52.334;10.392;2023-03-31T03:17:08;1.40;;;1.30;;
61477;SDS011;47345;52.334;10.392;2023-03-31T03:19:42;1.90;;;1.10;;
61477;SDS011;47345;52.334;10.392;2023-03-31T03:22:18;1.50;;;1.30;;
61477;SDS011;47345;52.334;10.392;2023-03-31T03:24:49;1.80;;;1.70;;
61477;SDS011;47345;52.334;10.392;2023-03-31T03:27:20;1.30;;;1.10;;
61477;SDS011;47345;52.334;10.392;2023-03-31T03:29:50;2.30;;;1.60;;
61477;SDS011;47345;52.334;10.392;2023-03-31T03:32:21;1.40;;;1.20;;
61477;SDS011;47345;52.334;10.392;2023-03-31T03:34:52;1.20;;;1.20;;
61477;SDS011;47345;52.334;10.392;2023-03-31T03:37:23;1.80;;;1.40;;
61477;SDS011;47345;52.334;10.392;2023-03-31T03:39:54;3.40;;;1.40;;
61477;SDS011;47345;52.334;10.392;2023-03-31T03:42:25;2.10;;;1.50;;
61477;SDS011;47345;52.334;10.392;2023-03-31T03:44:55;2.90;;;1.40;;
61477;SDS011;47345;52.334;10.392;2023-03-31T03:47:26;3.20;;;1.50;;
61477;SDS011;47345;52.334;10.392;2023-03-31T03:49:56;3.10;;;1.50;;
61477;SDS011;47345;52.334;10.392;2023-03-31T03:52:27;2.30;;;1.30;;
61477;SDS011;47345;52.334;10.392;2023-03-31T03:54:57;1.30;;;1.30;;
61477;SDS011;47345;52.334;10.392;2023-03-31T03:57:28;4.20;;;1.50;;
61477;SDS011;47345;52.334;10.392;2023-03-31T03:59:59;2.10;;;1.60;;
61477;SDS011;47345;52.334;10.392;2023-03-31T04:02:35;1.80;;;1.60;;
61477;SDS011;47345;52.334;10.392;2023-03-31T04:05:06;1.90;;;1.40;;
61477;SDS011;47345;52.334;10.392;2023-03-31T04:07:37;2.00;;;1.40;;
61477;SDS011;47345;52.334;10.392;2023-03-31T04:10:08;3.00;;;1.70;;
61477;SDS011;47345;52.334;10.392;2023-03-31T04:12:39;1.50;;;1.40;;
61477;SDS011;47345;52.334;10.392;2023-03-31T04:15:10;2.00;;;1.30;;
61477;SDS011;47345;52.334;10.392;2023-03-31T04:17:41;6.70;;;1.50;;
61477;SDS011;47345;52.334;10.392;2023-03-31T04:20:17;2.00;;;1.50;;
61477;SDS011;47345;52.334;10.392;2023-03-31T04:22:49;3.30;;;1.70;;
61477;SDS011;47345;52.334;10.392;2023-03-31T04:25:21;1.80;;;1.50;;
61477;SDS011;47345;52.334;10.392;2023-03-31T04:27:52;2.10;;;1.30;;
61477;SDS011;47345;52.334;10.392;2023-03-31T04:30:23;2.50;;;1.60;;
61477;SDS011;47345;52.334;10.392;2023-03-31T04:32:58;4.50;;;1.60;;
61477;SDS011;47345;52.334;10.392;2023-03-31T04:35:31;2.60;;;1.50;;
61477;SDS011;47345;52.334;10.392;2023-03-31T04:38:16;1.40;;;1.30;;
61477;SDS011;47345;52.334;10.392;2023-03-31T04:40:49;2.30;;;1.50;;
61477;SDS011;47345;52.334;10.392;2023-03-31T04:43:21;1.60;;;1.50;;
61477;SDS011;47345;52.334;10.392;2023-03-31T04:45:51;1.40;;;1.30;;
61477;SDS011;47345;52.334;10.392;2023-03-31T04:48:22;2.60;;;1.60;;
61477;SDS011;47345;52.334;10.392;2023-03-31T04:50:53;3.70;;;1.50;;
61477;SDS011;47345;52.334;10.392;2023-03-31T04:53:24;1.20;;;1.20;;
61477;SDS011;47345;52.334;10.392;2023-03-31T04:55:55;2.10;;;1.50;;
61477;SDS011;47345;52.334;10.392;2023-03-31T04:58:25;1.40;;;1.20;;
61477;SDS011;47345;52.334;10.392;2023-03-31T05:00:56;1.40;;;1.30;;
61477;SDS011;47345;52.334;10.392;2023-03-31T05:03:27;1.60;;;1.50;;
61477;SDS011;47345;52.334;10.392;2023-03-31T05:05:57;2.00;;;1.60;;
61477;SDS011;47345;52.334;10.392;2023-03-31T05:08:28;1.90;;;1.50;;
61477;SDS011;47345;52.334;10.392;2023-03-31T05:11:00;2.70;;;1.40;;
61477;SDS011;47345;52.334;10.392;2023-03-31T05:13:32;1.60;;;1.40;;
61477;SDS011;47345;52.334;10.392;2023-03-31T05:16:06;1.60;;;1.50;;
61477;SDS011;47345;52.334;10.392;2023-03-31T05:18:39;2.70;;;1.30;;
61477;SDS011;47345;52.334;10.392;2023-03-31T05:21:11;3.60;;;1.70;;
61477;SDS011;47345;52.334;10.392;2023-03-31T05:23:43;2.00;;;1.20;;
61477;SDS011;47345;52.334;10.392;2023-03-31T05:26:14;1.70;;;1.60;;
61477;SDS011;47345;52.334;10.392;2023-03-31T05:28:44;2.00;;;1.50;;
61477;SDS011;47345;52.334;10.392;2023-03-31T05:31:16;1.60;;;1.40;;
61477;SDS011;47345;52.334;10.392;2023-03-31T05:33:46;2.60;;;1.40;;
61477;SDS011;47345;52.334;10.392;2023-03-31T05:36:17;2.30;;;1.60;;
61477;SDS011;47345;52.334;10.392;2023-03-31T05:38:50;1.60;;;1.50;;
61477;SDS011;47345;52.334;10.392;2023-03-31T05:41:21;4.30;;;2.50;;
61477;SDS011;47345;52.334;10.392;2023-03-31T05:43:51;2.90;;;1.60;;
61477;SDS011;47345;52.334;10.392;2023-03-31T05:46:22;1.30;;;1.20;;
61477;SDS011;47345;52.334;10.392;2023-03-31T05:48:54;1.70;;;1.40;;
61477;SDS011;47345;52.334;10.392;2023-03-31T05:51:25;3.10;;;1.50;;
61477;SDS011;47345;52.334;10.392;2023-03-31T05:53:55;1.60;;;1.50;;
61477;SDS011;47345;52.334;10.392;2023-03-31T05:56:26;2.60;;;1.30;;
61477;SDS011;47345;52.334;10.392;2023-03-31T05:58:59;4.10;;;1.80;;
61477;SDS011;47345;52.334;10.392;2023-03-31T06:01:32;1.90;;;1.50;;
61477;SDS011;47345;52.334;10.392;2023-03-31T06:04:03;1.70;;;1.30;;
61477;SDS011;47345;52.334;10.392;2023-03-31T06:06:34;2.90;;;1.80;;
61477;SDS011;47345;52.334;10.392;2023-03-31T06:09:04;1.60;;;1.30;;
61477;SDS011;47345;52.334;10.392;2023-03-31T06:11:35;1.70;;;1.20;;
61477;SDS011;47345;52.334;10.392;2023-03-31T06:14:06;1.50;;;1.30;;
61477;SDS011;47345;52.334;10.392;2023-03-31T06:16:36;3.30;;;1.30;;
61477;SDS011;47345;52.334;10.392;2023-03-31T06:19:07;2.70;;;1.30;;
61477;SDS011;47345;52.334;10.392;2023-03-31T06:21:38;4.50;;;1.70;;
61477;SDS011;47345;52.334;10.392;2023-03-31T06:24:09;2.20;;;1.50;;
61477;SDS011;47345;52.334;10.392;2023-03-31T06:26:40;2.10;;;1.40;;
61477;SDS011;47345;52.334;10.392;2023-03-31T06:29:10;0.90;;;0.90;;
61477;SDS011;47345;52.334;10.392;2023-03-31T06:31:42;1.20;;;1.10;;
61477;SDS011;47345;52.334;10.392;2023-03-31T06:34:13;3.50;;;1.30;;
61477;SDS011;47345;52.334;10.392;2023-03-31T06:36:46;1.60;;;1.40;;
61477;SDS011;47345;52.334;10.392;2023-03-31T06:39:16;1.60;;;1.30;;
61477;SDS011;47345;52.334;10.392;2023-03-31T06:41:47;1.00;;;1.00;;
61477;SDS011;47345;52.334;10.392;2023-03-31T06:44:18;2.20;;;1.20;;
61477;SDS011;47345;52.334;10.392;2023-03-31T06:46:52;1.40;;;1.30;;
61477;SDS011;47345;52.334;10.392;2023-03-31T06:49:22;1.20;;;1.10;;
61477;SDS011;47345;52.334;10.392;2023-03-31T06:51:53;2.10;;;1.10;;
61477;SDS011;47345;52.334;10.392;2023-03-31T06:54:24;6.10;;;1.70;;
61477;SDS011;47345;52.334;10.392;2023-03-31T06:56:55;1.30;;;1.20;;
61477;SDS011;47345;52.334;10.392;2023-03-31T06:59:26;1.00;;;1.00;;
61477;SDS011;47345;52.334;10.392;2023-03-31T07:01:56;1.30;;;1.20;;
61477;SDS011;47345;52.334;10.392;2023-03-31T07:04:27;1.40;;;1.20;;
61477;SDS011;47345;52.334;10.392;2023-03-31T07:06:58;2.90;;;1.40;;
61477;SDS011;47345;52.334;10.392;2023-03-31T07:09:28;1.60;;;1.20;;
61477;SDS011;47345;52.334;10.392;2023-03-31T07:11:59;3.90;;;1.40;;
61477;SDS011;47345;52.334;10.392;2023-03-31T07:14:32;1.20;;;1.10;;
61477;SDS011;47345;52.334;10.392;2023-03-31T07:17:02;2.40;;;1.30;;
61477;SDS011;47345;52.334;10.392;2023-03-31T07:19:33;2.40;;;1.40;;
61477;SDS011;47345;52.334;10.392;2023-03-31T07:22:04;2.30;;;1.80;;
61477;SDS011;47345;52.334;10.392;2023-03-31T07:24:35;1.40;;;1.30;;
61477;SDS011;47345;52.334;10.392;2023-03-31T07:27:05;2.20;;;1.20;;
61477;SDS011;47345;52.334;10.392;2023-03-31T07:29:36;2.00;;;1.20;;
61477;SDS011;47345;52.334;10.392;2023-03-31T07:32:07;1.30;;;1.20;;
61477;SDS011;47345;52.334;10.392;2023-03-31T07:34:38;2.30;;;1.30;;
61477;SDS011;47345;52.334;10.392;2023-03-31T07:37:10;3.10;;;1.50;;
61477;SDS011;47345;52.334;10.392;2023-03-31T07:39:41;1.60;;;1.50;;
61477;SDS011;47345;52.334;10.392;2023-03-31T07:42:11;1.60;;;1.30;;
61477;SDS011;47345;52.334;10.392;2023-03-31T07:44:42;3.00;;;2.30;;
61477;SDS011;47345;52.334;10.392;2023-03-31T07:47:13;1.70;;;1.60;;
61477;SDS011;47345;52.334;10.392;2023-03-31T07:49:44;3.90;;;1.50;;
61477;SDS011;47345;52.334;10.392;2023-03-31T07:52:14;2.30;;;1.40;;
61477;SDS011;47345;52.334;10.392;2023-03-31T07:54:46;2.10;;;1.50;;
61477;SDS011;47345;52.334;10.392;2023-03-31T07:57:17;1.60;;;1.50;;
61477;SDS011;47345;52.334;10.392;2023-03-31T07:59:48;1.60;;;1.40;;
61477;SDS011;47345;52.334;10.392;2023-03-31T08:02:18;5.20;;;1.90;;
61477;SDS011;47345;52.334;10.392;2023-03-31T08:04:49;1.90;;;1.60;;
61477;SDS011;47345;52.334;10.392;2023-03-31T08:07:19;2.00;;;1.60;;
61477;SDS011;47345;52.334;10.392;2023-03-31T08:09:50;2.00;;;1.30;;
61477;SDS011;47345;52.334;10.392;2023-03-31T08:12:20;1.50;;;1.40;;
61477;SDS011;47345;52.334;10.392;2023-03-31T08:14:51;2.10;;;1.50;;
61477;SDS011;47345;52.334;10.392;2023-03-31T08:17:21;1.50;;;1.30;;
61477;SDS011;47345;52.334;10.392;2023-03-31T08:19:52;1.70;;;1.60;;
61477;SDS011;47345;52.334;10.392;2023-03-31T08:22:22;2.30;;;1.80;;
61477;SDS011;47345;52.334;10.392;2023-03-31T08:24:54;3.10;;;1.70;;
61477;SDS011;47345;52.334;10.392;2023-03-31T08:27:25;1.70;;;1.50;;
61477;SDS011;47345;52.334;10.392;2023-03-31T08:29:56;1.90;;;1.50;;
61477;SDS011;47345;52.334;10.392;2023-03-31T08:32:30;1.80;;;1.40;;
61477;SDS011;47345;52.334;10.392;2023-03-31T08:35:00;2.90;;;1.60;;
61477;SDS011;47345;52.334;10.392;2023-03-31T08:37:32;2.40;;;1.50;;
61477;SDS011;47345;52.334;10.392;2023-03-31T08:40:05;2.20;;;1.40;;
61477;SDS011;47345;52.334;10.392;2023-03-31T08:42:42;3.00;;;1.60;;
61477;SDS011;47345;52.334;10.392;2023-03-31T08:45:17;3.20;;;1.80;;
61477;SDS011;47345;52.334;10.392;2023-03-31T08:47:52;1.70;;;1.60;;
61477;SDS011;47345;52.334;10.392;2023-03-31T08:50:27;2.70;;;1.50;;
61477;SDS011;47345;52.334;10.392;2023-03-31T08:53:03;3.00;;;1.40;;
61477;SDS011;47345;52.334;10.392;2023-03-31T08:55:38;4.70;;;1.40;;
61477;SDS011;47345;52.334;10.392;2023-03-31T08:58:19;1.80;;;1.30;;
61477;SDS011;47345;52.334;10.392;2023-03-31T09:01:01;1.30;;;1.20;;
61477;SDS011;47345;52.334;10.392;2023-03-31T09:03:41;1.90;;;1.50;;
61477;SDS011;47345;52.334;10.392;2023-03-31T09:06:17;3.40;;;1.40;;
61477;SDS011;47345;52.334;10.392;2023-03-31T09:08:54;3.70;;;1.80;;
61477;SDS011;47345;52.334;10.392;2023-03-31T09:11:31;3.60;;;1.10;;
61477;SDS011;47345;52.334;10.392;2023-03-31T09:14:08;1.80;;;1.40;;
61477;SDS011;47345;52.334;10.392;2023-03-31T09:16:49;5.90;;;1.50;;
61477;SDS011;47345;52.334;10.392;2023-03-31T09:19:32;5.90;;;1.50;;
61477;SDS011;47345;52.334;10.392;2023-03-31T09:24:42;2.50;;;1.40;;
61477;SDS011;47345;52.334;10.392;2023-03-31T09:27:19;1.80;;;1.50;;
61477;SDS011;47345;52.334;10.392;2023-03-31T09:29:54;1.90;;;1.20;;
61477;SDS011;47345;52.334;10.392;2023-03-31T09:32:28;2.20;;;1.50;;
61477;SDS011;47345;52.334;10.392;2023-03-31T09:35:02;2.40;;;1.50;;
61477;SDS011;47345;52.334;10.392;2023-03-31T09:37:44;1.50;;;1.40;;
61477;SDS011;47345;52.334;10.392;2023-03-31T09:40:17;5.60;;;1.60;;
61477;SDS011;47345;52.334;10.392;2023-03-31T09:42:50;2.80;;;1.30;;
61477;SDS011;47345;52.334;10.392;2023-03-31T09:45:26;1.70;;;1.40;;
61477;SDS011;47345;52.334;10.392;2023-03-31T09:48:00;1.60;;;1.50;;
61477;SDS011;47345;52.334;10.392;2023-03-31T09:50:33;3.10;;;1.50;;
61477;SDS011;47345;52.334;10.392;2023-03-31T09:53:09;2.20;;;1.40;;
61477;SDS011;47345;52.334;10.392;2023-03-31T09:55:44;2.20;;;1.70;;
61477;SDS011;47345;52.334;10.392;2023-03-31T09:58:20;1.20;;;1.10;;
61477;SDS011;47345;52.334;10.392;2023-03-31T10:00:59;2.40;;;1.30;;
61477;SDS011;47345;52.334;10.392;2023-03-31T10:03:33;3.80;;;1.20;;
61477;SDS011;47345;52.334;10.392;2023-03-31T10:06:17;2.00;;;1.60;;
61477;SDS011;47345;52.334;10.392;2023-03-31T10:08:48;1.60;;;1.50;;
61477;SDS011;47345;52.334;10.392;2023-03-31T10:11:22;1.50;;;1.30;;
61477;SDS011;47345;52.334;10.392;2023-03-31T10:13:54;3.80;;;1.80;;
61477;SDS011;47345;52.334;10.392;2023-03-31T10:16:30;2.60;;;1.50;;
61477;SDS011;47345;52.334;10.392;2023-03-31T10:21:55;1.80;;;1.30;;
61477;SDS011;47345;52.334;10.392;2023-03-31T10:24:27;2.00;;;1.30;;
61477;SDS011;47345;52.334;10.392;2023-03-31T10:27:11;1.60;;;1.20;;
61477;SDS011;47345;52.334;10.392;2023-03-31T10:29:47;2.20;;;1.40;;
61477;SDS011;47345;52.334;10.392;2023-03-31T10:32:22;2.20;;;1.50;;
61477;SDS011;47345;52.334;10.392;2023-03-31T10:34:56;2.80;;;1.60;;
61477;SDS011;47345;52.334;10.392;2023-03-31T10:37:32;3.40;;;1.50;;
61477;SDS011;47345;52.334;10.392;2023-03-31T10:40:12;2.30;;;1.60;;
61477;SDS011;47345;52.334;10.392;2023-03-31T10:42:49;2.30;;;1.50;;
61477;SDS011;47345;52.334;10.392;2023-03-31T10:45:30;1.50;;;1.30;;
61477;SDS011;47345;52.334;10.392;2023-03-31T10:48:16;2.80;;;1.70;;
61477;SDS011;47345;52.334;10.392;2023-03-31T10:50:51;2.00;;;1.30;;
61477;SDS011;47345;52.334;10.392;2023-03-31T10:53:23;2.00;;;1.80;;
61477;SDS011;47345;52.334;10.392;2023-03-31T10:55:56;1.90;;;1.40;;
61477;SDS011;47345;52.334;10.392;2023-03-31T10:58:49;1.50;;;1.40;;
61477;SDS011;47345;52.334;10.392;2023-03-31T11:01:36;1.50;;;1.40;;
61477;SDS011;47345;52.334;10.392;2023-03-31T11:04:30;2.10;;;1.90;;
61477;SDS011;47345;52.334;10.392;2023-03-31T11:07:14;2.10;;;1.80;;
61477;SDS011;47345;52.334;10.392;2023-03-31T11:10:01;3.20;;;1.40;;
61477;SDS011;47345;52.334;10.392;2023-03-31T11:12:48;1.40;;;1.30;;
61477;SDS011;47345;52.334;10.392;2023-03-31T11:15:27;1.80;;;1.60;;
61477;SDS011;47345;52.334;10.392;2023-03-31T11:18:10;2.50;;;1.60;;
61477;SDS011;47345;52.334;10.392;2023-03-31T11:20:52;2.10;;;1.60;;
61477;SDS011;47345;52.334;10.392;2023-03-31T11:23:37;1.90;;;1.50;;
61477;SDS011;47345;52.334;10.392;2023-03-31T11:26:10;1.90;;;1.70;;
61477;SDS011;47345;52.334;10.392;2023-03-31T11:28:56;2.00;;;1.70;;
61477;SDS011;47345;52.334;10.392;2023-03-31T11:31:34;2.60;;;1.30;;
61477;SDS011;47345;52.334;10.392;2023-03-31T11:34:20;1.60;;;1.50;;
61477;SDS011;47345;52.334;10.392;2023-03-31T11:37:09;3.20;;;1.30;;
61477;SDS011;47345;52.334;10.392;2023-03-31T11:39:56;1.40;;;1.30;;
61477;SDS011;47345;52.334;10.392;2023-03-31T11:42:44;2.40;;;1.30;;
61477;SDS011;47345;52.334;10.392;2023-03-31T11:45:22;1.40;;;1.20;;
61477;SDS011;47345;52.334;10.392;2023-03-31T11:47:58;1.40;;;1.30;;
61477;SDS011;47345;52.334;10.392;2023-03-31T11:50:35;1.60;;;1.40;;
61477;SDS011;47345;52.334;10.392;2023-03-31T11:53:10;3.90;;;2.00;;
61477;SDS011;47345;52.334;10.392;2023-03-31T11:55:44;2.90;;;1.90;;
61477;SDS011;47345;52.334;10.392;2023-03-31T11:58:19;2.50;;;2.20;;
61477;SDS011;47345;52.334;10.392;2023-03-31T12:00:55;2.50;;;1.90;;
61477;SDS011;47345;52.334;10.392;2023-03-31T12:03:31;1.80;;;1.40;;
61477;SDS011;47345;52.334;10.392;2023-03-31T12:06:08;1.50;;;1.40;;
61477;SDS011;47345;52.334;10.392;2023-03-31T12:08:48;2.70;;;1.70;;
61477;SDS011;47345;52.334;10.392;2023-03-31T12:11:25;1.90;;;1.50;;
61477;SDS011;47345;52.334;10.392;2023-03-31T12:14:05;1.70;;;1.60;;
61477;SDS011;47345;52.334;10.392;2023-03-31T12:16:45;2.10;;;1.30;;
61477;SDS011;47345;52.334;10.392;2023-03-31T12:19:20;1.80;;;1.70;;
61477;SDS011;47345;52.334;10.392;2023-03-31T12:21:56;1.60;;;1.50;;
61477;SDS011;47345;52.334;10.392;2023-03-31T12:24:33;1.70;;;1.60;;
61477;SDS011;47345;52.334;10.392;2023-03-31T12:27:06;1.70;;;1.50;;
61477;SDS011;47345;52.334;10.392;2023-03-31T12:29:42;1.80;;;1.70;;
61477;SDS011;47345;52.334;10.392;2023-03-31T12:32:17;2.50;;;1.50;;
61477;SDS011;47345;52.334;10.392;2023-03-31T12:34:53;1.60;;;1.50;;
61477;SDS011;47345;52.334;10.392;2023-03-31T12:37:39;1.90;;;1.50;;
61477;SDS011;47345;52.334;10.392;2023-03-31T12:40:25;1.40;;;1.30;;
61477;SDS011;47345;52.334;10.392;2023-03-31T12:43:15;1.60;;;1.30;;
61477;SDS011;47345;52.334;10.392;2023-03-31T12:45:56;1.80;;;1.20;;
61477;SDS011;47345;52.334;10.392;2023-03-31T12:48:47;1.30;;;1.20;;
61477;SDS011;47345;52.334;10.392;2023-03-31T12:51:29;1.50;;;1.40;;
61477;SDS011;47345;52.334;10.392;2023-03-31T12:54:19;1.10;;;1.00;;
61477;SDS011;47345;52.334;10.392;2023-03-31T12:57:14;2.00;;;1.20;;
61477;SDS011;47345;52.334;10.392;2023-03-31T13:02:46;10.30;;;1.60;;
61477;SDS011;47345;52.334;10.392;2023-03-31T13:11:36;1.10;;;1.10;;
61477;SDS011;47345;52.334;10.392;2023-03-31T13:14:14;2.00;;;1.40;;
61477;SDS011;47345;52.334;10.392;2023-03-31T13:16:48;1.40;;;1.30;;
61477;SDS011;47345;52.334;10.392;2023-03-31T13:19:27;1.70;;;1.50;;
61477;SDS011;47345;52.334;10.392;2023-03-31T13:22:01;1.40;;;1.30;;
61477;SDS011;47345;52.334;10.392;2023-03-31T13:24:33;4.10;;;1.30;;
61477;SDS011;47345;52.334;10.392;2023-03-31T13:29:58;2.30;;;1.60;;
61477;SDS011;47345;52.334;10.392;2023-03-31T13:32:28;1.70;;;1.50;;
61477;SDS011;47345;52.334;10.392;2023-03-31T13:35:22;1.60;;;1.00;;
61477;SDS011;47345;52.334;10.392;2023-03-31T13:38:11;1.40;;;1.20;;
61477;SDS011;47345;52.334;10.392;2023-03-31T13:40:56;1.40;;;1.20;;
61477;SDS011;47345;52.334;10.392;2023-03-31T13:43:45;1.90;;;1.50;;
61477;SDS011;47345;52.334;10.392;2023-03-31T13:46:46;1.90;;;1.30;;
61477;SDS011;47345;52.334;10.392;2023-03-31T13:55:37;1.50;;;1.20;;
61477;SDS011;47345;52.334;10.392;2023-03-31T13:58:25;1.60;;;1.00;;
61477;SDS011;47345;52.334;10.392;2023-03-31T14:01:29;2.50;;;1.10;;
61477;SDS011;47345;52.334;10.392;2023-03-31T14:07:25;1.70;;;1.60;;
61477;SDS011;47345;52.334;10.392;2023-03-31T14:10:01;1.40;;;1.00;;
61477;SDS011;47345;52.334;10.392;2023-03-31T14:12:35;1.70;;;1.40;;
61477;SDS011;47345;52.334;10.392;2023-03-31T14:15:16;1.30;;;1.10;;
61477;SDS011;47345;52.334;10.392;2023-03-31T14:17:48;3.30;;;1.50;;
61477;SDS011;47345;52.334;10.392;2023-03-31T14:20:24;4.90;;;1.50;;
61477;SDS011;47345;52.334;10.392;2023-03-31T14:23:03;1.90;;;1.20;;
61477;SDS011;47345;52.334;10.392;2023-03-31T14:25:46;5.50;;;1.20;;
61477;SDS011;47345;52.334;10.392;2023-03-31T14:31:13;1.00;;;1.00;;
61477;SDS011;47345;52.334;10.392;2023-03-31T14:33:53;1.40;;;1.30;;
61477;SDS011;47345;52.334;10.392;2023-03-31T14:36:47;4.00;;;1.40;;
61477;SDS011;47345;52.334;10.392;2023-03-31T14:39:27;2.40;;;1.30;;
61477;SDS011;47345;52.334;10.392;2023-03-31T14:42:01;5.20;;;1.40;;
61477;SDS011;47345;52.334;10.392;2023-03-31T14:44:35;2.60;;;1.50;;
61477;SDS011;47345;52.334;10.392;2023-03-31T14:47:10;1.40;;;1.20;;
61477;SDS011;47345;52.334;10.392;2023-03-31T14:49:43;2.20;;;1.40;;
61477;SDS011;47345;52.334;10.392;2023-03-31T14:52:15;3.90;;;2.10;;
61477;SDS011;47345;52.334;10.392;2023-03-31T14:54:47;4.70;;;2.60;;
61477;SDS011;47345;52.334;10.392;2023-03-31T14:57:21;10.00;;;3.60;;
61477;SDS011;47345;52.334;10.392;2023-03-31T14:59:58;11.20;;;4.00;;
61477;SDS011;47345;52.334;10.392;2023-03-31T15:02:35;14.90;;;5.20;;
61477;SDS011;47345;52.334;10.392;2023-03-31T15:05:09;10.20;;;4.00;;
61477;SDS011;47345;52.334;10.392;2023-03-31T15:07:54;5.20;;;3.00;;
61477;SDS011;47345;52.334;10.392;2023-03-31T15:10:27;5.30;;;2.80;;
61477;SDS011;47345;52.334;10.392;2023-03-31T15:13:01;3.70;;;2.70;;
61477;SDS011;47345;52.334;10.392;2023-03-31T15:15:37;5.70;;;3.10;;
61477;SDS011;47345;52.334;10.392;2023-03-31T15:18:09;2.60;;;1.90;;
61477;SDS011;47345;52.334;10.392;2023-03-31T15:20:42;8.00;;;3.80;;
61477;SDS011;47345;52.334;10.392;2023-03-31T15:23:20;8.10;;;3.00;;
61477;SDS011;47345;52.334;10.392;2023-03-31T15:25:54;4.30;;;2.90;;
61477;SDS011;47345;52.334;10.392;2023-03-31T15:28:30;7.30;;;4.00;;
61477;SDS011;47345;52.334;10.392;2023-03-31T15:31:07;4.70;;;2.70;;
61477;SDS011;47345;52.334;10.392;2023-03-31T15:33:38;2.90;;;1.80;;
61477;SDS011;47345;52.334;10.392;2023-03-31T15:36:09;3.40;;;2.40;;
61477;SDS011;47345;52.334;10.392;2023-03-31T15:38:40;3.80;;;1.90;;
61477;SDS011;47345;52.334;10.392;2023-03-31T15:41:12;1.90;;;1.50;;
61477;SDS011;47345;52.334;10.392;2023-03-31T15:43:45;2.50;;;1.40;;
61477;SDS011;47345;52.334;10.392;2023-03-31T15:46:19;2.70;;;1.60;;
61477;SDS011;47345;52.334;10.392;2023-03-31T15:49:18;3.70;;;1.30;;
61477;SDS011;47345;52.334;10.392;2023-03-31T15:57:13;2.80;;;1.40;;
61477;SDS011;47345;52.334;10.392;2023-03-31T15:59:46;2.90;;;1.30;;
61477;SDS011;47345;52.334;10.392;2023-03-31T16:02:23;0.80;;;0.80;;
61477;SDS011;47345;52.334;10.392;2023-03-31T16:04:56;1.10;;;1.10;;
61477;SDS011;47345;52.334;10.392;2023-03-31T16:07:37;1.30;;;1.10;;